createdAt,value
2019-02-28T00:00:59.913Z,1.69
2019-02-28T00:02:03.953Z,1.59
2019-02-28T00:03:07.680Z,1.63
2019-02-28T00:04:11.319Z,1.53
2019-02-28T00:05:14.960Z,1.43
2019-02-28T00:06:18.600Z,1.42
2019-02-28T00:07:22.230Z,1.44
2019-02-28T00:08:25.968Z,1.39
2019-02-28T00:09:29.542Z,1.40
2019-02-28T00:10:33.177Z,1.37
2019-02-28T00:11:39.573Z,1.39
2019-02-28T00:12:42.274Z,1.41
2019-02-28T00:13:45.915Z,1.51
2019-02-28T00:14:49.644Z,1.56
2019-02-28T00:15:53.661Z,1.56
2019-02-28T00:16:57.236Z,1.49
2019-02-28T00:18:00.865Z,1.45
2019-02-28T00:19:04.951Z,1.43
2019-02-28T00:20:09.591Z,1.38
2019-02-28T00:21:13.226Z,1.34
2019-02-28T00:22:17.152Z,1.24
2019-02-28T00:23:21.955Z,1.16
2019-02-28T00:24:27.221Z,1.13
2019-02-28T00:25:31.549Z,1.16
2019-02-28T00:26:35.196Z,1.25
2019-02-28T00:27:38.839Z,1.29
2019-02-28T00:28:42.472Z,1.31
2019-02-28T00:29:46.141Z,1.27
2019-02-28T00:30:49.813Z,1.24
2019-02-28T00:31:53.452Z,1.24
2019-02-28T00:34:18.317Z,1.18
2019-02-28T00:35:21.983Z,0.97
2019-02-28T00:36:25.625Z,0.96
2019-02-28T00:37:29.640Z,0.99
2019-02-28T00:38:33.276Z,0.90
2019-02-28T00:39:36.910Z,0.95
2019-02-28T00:40:40.571Z,0.97
2019-02-28T00:41:44.770Z,1.04
2019-02-28T00:42:50.820Z,1.09
2019-02-28T00:43:56.917Z,1.12
2019-02-28T00:45:02.269Z,1.06
2019-02-28T00:46:07.287Z,1.05
2019-02-28T00:47:09.863Z,1.01
2019-02-28T00:48:13.504Z,0.91
2019-02-28T00:49:32.231Z,0.85
2019-02-28T00:50:35.973Z,0.81
2019-02-28T00:51:39.615Z,0.81
2019-02-28T00:52:43.301Z,0.85
2019-02-28T00:53:46.931Z,0.96
2019-02-28T00:54:50.497Z,1.04
2019-02-28T00:55:54.449Z,1.13
2019-02-28T00:56:58.111Z,1.16
2019-02-28T00:58:02.039Z,1.10
2019-02-28T00:59:08.608Z,1.06
2019-02-28T01:00:15.231Z,1.06
2019-02-28T01:01:18.868Z,1.03
2019-02-28T01:02:22.530Z,1.09
2019-02-28T01:03:27.299Z,1.11
2019-02-28T01:04:31.601Z,1.09
2019-02-28T01:05:36.563Z,0.95
2019-02-28T01:06:41.753Z,0.91
2019-02-28T01:07:48.236Z,0.93
2019-02-28T01:08:52.984Z,1.07
2019-02-28T01:09:56.350Z,1.19
2019-02-28T01:10:59.987Z,1.26
2019-02-28T01:12:03.711Z,1.28
2019-02-28T01:13:07.368Z,1.22
2019-02-28T01:14:10.996Z,1.23
2019-02-28T01:15:18.685Z,1.12
2019-02-28T01:16:22.311Z,1.16
2019-02-28T01:17:26.748Z,1.24
2019-02-28T01:18:41.482Z,1.32
2019-02-28T01:19:45.107Z,1.31
2019-02-28T01:20:50.748Z,1.34
2019-02-28T01:21:55.450Z,1.33
2019-02-28T01:22:59.837Z,1.41
2019-02-28T01:24:03.481Z,1.45
2019-02-28T01:25:10.255Z,1.46
2019-02-28T01:26:13.896Z,1.46
2019-02-28T01:27:21.012Z,1.40
2019-02-28T01:28:23.407Z,1.40
2019-02-28T01:29:28.192Z,1.41
2019-02-28T01:30:31.826Z,1.36
2019-02-28T01:31:35.457Z,1.36
2019-02-28T01:32:39.146Z,1.40
2019-02-28T01:33:42.775Z,1.34
2019-02-28T01:34:46.446Z,1.38
2019-02-28T01:35:50.069Z,1.47
2019-02-28T01:36:53.704Z,1.51
2019-02-28T01:37:57.419Z,1.63
2019-02-28T01:39:01.046Z,1.70
2019-02-28T01:40:07.422Z,1.68
2019-02-28T01:41:11.894Z,1.56
2019-02-28T01:43:36.977Z,1.33
2019-02-28T01:44:40.536Z,1.23
2019-02-28T01:45:44.413Z,1.15
2019-02-28T01:46:48.657Z,1.12
2019-02-28T01:47:52.911Z,1.06
2019-02-28T01:48:56.535Z,1.06
2019-02-28T01:50:00.228Z,1.18
2019-02-28T01:51:03.925Z,1.31
2019-02-28T01:52:10.088Z,1.41
2019-02-28T01:53:13.315Z,1.53
2019-02-28T01:54:17.284Z,1.44
2019-02-28T01:55:20.902Z,1.36
2019-02-28T01:56:24.592Z,1.20
2019-02-28T01:57:28.381Z,1.16
2019-02-28T01:58:32.008Z,1.19
2019-02-28T01:59:35.638Z,1.16
2019-02-28T02:00:39.262Z,1.15
2019-02-28T02:01:42.896Z,1.19
2019-02-28T02:02:46.540Z,1.16
2019-02-28T02:03:50.174Z,1.12
2019-02-28T02:04:54.211Z,1.20
2019-02-28T02:05:57.853Z,1.33
2019-02-28T02:07:01.534Z,1.44
2019-02-28T02:08:07.313Z,1.53
2019-02-28T02:09:11.860Z,1.41
2019-02-28T02:10:21.706Z,1.33
2019-02-28T02:11:26.714Z,1.32
2019-02-28T02:12:31.679Z,1.35
2019-02-28T02:13:36.824Z,1.37
2019-02-28T02:14:44.898Z,1.39
2019-02-28T02:15:50.961Z,1.37
2019-02-28T02:16:52.521Z,1.22
2019-02-28T02:17:56.203Z,1.12
2019-02-28T02:18:59.830Z,1.16
2019-02-28T02:20:04.157Z,1.23
2019-02-28T02:21:07.810Z,1.36
2019-02-28T02:22:11.434Z,1.45
2019-02-28T02:23:17.804Z,1.38
2019-02-28T02:24:20.391Z,1.17
2019-02-28T02:25:24.021Z,1.07
2019-02-28T02:26:27.750Z,1.09
2019-02-28T02:27:31.365Z,1.13
2019-02-28T02:28:35.013Z,1.06
2019-02-28T02:29:38.647Z,0.95
2019-02-28T02:30:42.741Z,0.95
2019-02-28T02:31:46.355Z,0.93
2019-02-28T02:32:49.973Z,0.92
2019-02-28T02:33:53.625Z,0.92
2019-02-28T02:34:57.241Z,0.95
2019-02-28T02:36:00.889Z,1.03
2019-02-28T02:37:04.522Z,1.15
2019-02-28T02:38:08.143Z,1.26
2019-02-28T02:39:16.320Z,1.35
2019-02-28T02:40:17.680Z,1.34
2019-02-28T02:41:21.286Z,1.28
2019-02-28T02:42:24.920Z,1.25
2019-02-28T02:43:28.624Z,1.15
2019-02-28T02:44:32.307Z,1.17
2019-02-28T02:45:41.911Z,1.10
2019-02-28T02:46:41.280Z,1.12
2019-02-28T02:47:45.291Z,1.11
2019-02-28T02:48:48.897Z,1.07
2019-02-28T02:49:57.419Z,1.11
2019-02-28T02:50:57.857Z,1.14
2019-02-28T02:52:01.483Z,1.18
2019-02-28T02:53:06.442Z,1.25
2019-02-28T02:54:10.319Z,1.35
2019-02-28T02:55:14.609Z,1.44
2019-02-28T02:56:18.216Z,1.53
2019-02-28T02:57:21.863Z,1.56
2019-02-28T02:58:27.830Z,1.49
2019-02-28T02:59:37.254Z,1.45
2019-02-28T03:00:36.178Z,1.43
2019-02-28T03:01:40.143Z,1.31
2019-02-28T03:02:44.137Z,1.28
2019-02-28T03:03:47.762Z,1.31
2019-02-28T03:04:57.889Z,1.21
2019-02-28T03:05:56.851Z,1.25
2019-02-28T03:07:00.493Z,1.10
2019-02-28T03:08:04.099Z,1.11
2019-02-28T03:09:09.879Z,1.12
2019-02-28T03:10:17.474Z,1.22
2019-02-28T03:11:24.851Z,1.26
2019-02-28T03:12:31.204Z,1.38
2019-02-28T03:13:31.670Z,1.43
2019-02-28T03:14:35.284Z,1.41
2019-02-28T03:15:38.926Z,1.29
2019-02-28T03:16:42.610Z,1.20
2019-02-28T03:17:47.126Z,1.10
2019-02-28T03:18:56.826Z,1.01
2019-02-28T03:19:56.980Z,0.95
2019-02-28T03:21:00.599Z,0.84
2019-02-28T03:22:04.271Z,0.91
2019-02-28T03:23:07.909Z,0.88
2019-02-28T03:24:15.203Z,0.91
2019-02-28T03:25:17.634Z,0.93
2019-02-28T03:26:21.314Z,0.82
2019-02-28T03:27:24.877Z,0.75
2019-02-28T03:28:32.047Z,0.83
2019-02-28T03:29:33.906Z,0.95
2019-02-28T03:30:37.545Z,1.08
2019-02-28T03:31:41.213Z,1.19
2019-02-28T03:32:44.934Z,1.18
2019-02-28T03:33:48.566Z,1.13
2019-02-28T03:34:57.888Z,1.05
2019-02-28T03:35:57.493Z,0.95
2019-02-28T03:37:01.171Z,0.90
2019-02-28T03:38:10.633Z,0.90
2019-02-28T03:39:10.176Z,0.88
2019-02-28T03:40:15.596Z,0.85
2019-02-28T03:41:19.230Z,0.81
2019-02-28T03:42:28.605Z,0.78
2019-02-28T03:43:28.607Z,0.79
2019-02-28T03:44:32.238Z,0.79
2019-02-28T03:45:35.870Z,0.83
2019-02-28T03:46:46.433Z,0.79
2019-02-28T03:47:45.686Z,0.87
2019-02-28T03:48:49.323Z,0.99
2019-02-28T03:49:53.265Z,1.09
2019-02-28T03:50:56.914Z,1.10
2019-02-28T03:52:05.569Z,0.99
2019-02-28T03:53:05.936Z,0.85
2019-02-28T03:54:09.916Z,0.81
2019-02-28T03:55:14.415Z,0.78
2019-02-28T03:56:18.181Z,0.80
2019-02-28T03:57:27.976Z,0.76
2019-02-28T03:58:27.883Z,0.71
2019-02-28T03:59:31.519Z,0.61
2019-02-28T04:00:35.155Z,0.49
2019-02-28T04:01:45.029Z,0.49
2019-02-28T04:02:44.579Z,0.49
2019-02-28T04:03:48.228Z,0.46
2019-02-28T04:04:51.871Z,0.46
2019-02-28T04:06:03.003Z,0.55
2019-02-28T04:07:00.888Z,0.64
2019-02-28T04:08:04.627Z,0.74
2019-02-28T04:09:09.140Z,0.76
2019-02-28T04:10:16.814Z,0.72
2019-02-28T04:11:19.883Z,0.63
2019-02-28T04:12:23.521Z,0.59
2019-02-28T04:13:27.227Z,0.56
2019-02-28T04:14:33.018Z,0.51
2019-02-28T04:15:36.840Z,0.52
2019-02-28T04:16:40.535Z,0.46
2019-02-28T04:17:44.762Z,0.46
2019-02-28T04:18:48.419Z,0.43
2019-02-28T04:19:58.756Z,0.38
2019-02-28T04:20:57.432Z,0.35
2019-02-28T04:22:01.133Z,0.32
2019-02-28T04:23:04.881Z,0.34
2019-02-28T04:24:12.901Z,0.45
2019-02-28T04:25:13.983Z,0.54
2019-02-28T04:26:17.610Z,0.63
2019-02-28T04:27:21.240Z,0.66
2019-02-28T04:28:24.811Z,0.62
2019-02-28T04:29:31.199Z,0.54
2019-02-28T04:30:34.632Z,0.54
2019-02-28T04:31:38.201Z,0.51
2019-02-28T04:32:41.936Z,0.41
2019-02-28T04:33:45.514Z,0.42
2019-02-28T04:34:49.881Z,0.38
2019-02-28T04:35:56.801Z,0.37
2019-02-28T04:36:58.903Z,0.33
2019-02-28T04:38:02.541Z,0.21
2019-02-28T04:39:06.848Z,0.22
2019-02-28T04:40:12.264Z,0.16
2019-02-28T04:41:15.934Z,0.14
2019-02-28T04:42:19.935Z,0.13
2019-02-28T04:43:23.505Z,0.24
2019-02-28T04:44:27.077Z,0.30
2019-02-28T04:45:30.717Z,0.34
2019-02-28T04:46:34.401Z,0.38
2019-02-28T04:47:40.449Z,0.41
2019-02-28T04:48:45.668Z,0.41
2019-02-28T04:49:48.675Z,0.43
2019-02-28T04:50:52.296Z,0.35
2019-02-28T04:51:55.960Z,0.31
2019-02-28T04:52:59.602Z,0.26
2019-02-28T04:54:03.241Z,0.19
2019-02-28T04:55:07.582Z,0.21
2019-02-28T04:56:12.141Z,0.18
2019-02-28T04:57:17.412Z,0.22
2019-02-28T04:58:22.310Z,0.28
2019-02-28T04:59:26.681Z,0.27
2019-02-28T05:00:30.417Z,0.26
2019-02-28T05:01:34.049Z,0.29
2019-02-28T05:02:37.712Z,0.37
2019-02-28T05:03:41.466Z,0.37
2019-02-28T05:04:45.091Z,0.39
2019-02-28T05:05:48.716Z,0.30
2019-02-28T05:06:55.292Z,0.17
2019-02-28T05:07:57.759Z,0.22
2019-02-28T05:09:01.395Z,0.29
2019-02-28T05:10:07.019Z,0.29
2019-02-28T05:11:10.656Z,0.22
2019-02-28T05:12:14.317Z,0.20
2019-02-28T05:13:18.010Z,0.22
2019-02-28T05:14:23.793Z,0.22
2019-02-28T05:15:27.084Z,0.15
2019-02-28T05:16:30.726Z,0.05
2019-02-28T05:17:34.374Z,0.05
2019-02-28T05:18:38.037Z,0.02
2019-02-28T05:19:41.683Z,-0.03
2019-02-28T05:20:46.050Z,0.09
2019-02-28T05:21:50.638Z,0.22
2019-02-28T05:22:54.989Z,0.33
2019-02-28T05:23:58.664Z,0.34
2019-02-28T05:25:02.302Z,0.34
2019-02-28T05:26:06.512Z,0.33
2019-02-28T05:27:10.217Z,0.32
2019-02-28T05:28:13.786Z,0.33
2019-02-28T05:29:17.455Z,0.40
2019-02-28T05:30:22.562Z,0.39
2019-02-28T05:31:27.125Z,0.41
2019-02-28T05:32:32.135Z,0.40
2019-02-28T05:33:38.387Z,0.34
2019-02-28T05:34:42.370Z,0.32
2019-02-28T05:35:45.934Z,0.27
2019-02-28T05:36:49.574Z,0.31
2019-02-28T05:37:53.214Z,0.39
2019-02-28T05:38:57.342Z,0.47
2019-02-28T05:40:05.234Z,0.47
2019-02-28T05:41:06.468Z,0.42
2019-02-28T05:42:10.112Z,0.41
2019-02-28T05:43:13.744Z,0.34
2019-02-28T05:44:18.455Z,0.30
2019-02-28T05:45:22.113Z,0.24
2019-02-28T05:46:25.674Z,0.23
2019-02-28T05:47:32.244Z,0.34
2019-02-28T05:48:38.605Z,0.40
2019-02-28T05:49:43.000Z,0.48
2019-02-28T05:50:52.810Z,0.57
2019-02-28T05:51:58.573Z,0.54
2019-02-28T05:52:59.951Z,0.61
2019-02-28T05:54:03.587Z,0.53
2019-02-28T05:55:09.132Z,0.60
2019-02-28T05:56:12.771Z,0.71
2019-02-28T05:57:16.414Z,0.68
2019-02-28T05:58:20.901Z,0.57
2019-02-28T05:59:27.402Z,0.40
2019-02-28T06:00:30.037Z,0.29
2019-02-28T06:01:33.975Z,0.22
2019-02-28T06:02:37.623Z,0.21
2019-02-28T06:03:41.573Z,0.16
2019-02-28T06:04:45.204Z,0.17
2019-02-28T06:05:48.895Z,0.16
2019-02-28T06:06:54.687Z,0.17
2019-02-28T06:08:00.566Z,0.18
2019-02-28T06:09:05.033Z,0.18
2019-02-28T06:10:11.479Z,0.08
2019-02-28T06:11:15.387Z,0.09
2019-02-28T06:12:19.193Z,0.12
2019-02-28T06:13:22.825Z,0.26
2019-02-28T06:14:27.624Z,0.35
2019-02-28T06:15:34.176Z,0.36
2019-02-28T06:16:36.781Z,0.31
2019-02-28T06:17:40.491Z,0.27
2019-02-28T06:18:44.127Z,0.23
2019-02-28T06:19:47.764Z,0.27
2019-02-28T06:20:52.264Z,0.22
2019-02-28T06:21:56.289Z,0.29
2019-02-28T06:23:01.686Z,0.38
2019-02-28T06:24:05.319Z,0.42
2019-02-28T06:25:10.552Z,0.40
2019-02-28T06:26:14.208Z,0.44
2019-02-28T06:27:18.464Z,0.53
2019-02-28T06:28:22.099Z,0.63
2019-02-28T06:29:25.747Z,0.69
2019-02-28T06:30:29.445Z,0.77
2019-02-28T06:31:34.469Z,0.82
2019-02-28T06:32:38.216Z,0.80
2019-02-28T06:33:41.901Z,0.81
2019-02-28T06:34:45.460Z,0.80
2019-02-28T06:35:49.521Z,0.87
2019-02-28T06:36:56.699Z,1.03
2019-02-28T06:38:00.423Z,1.11
2019-02-28T06:39:05.131Z,1.06
2019-02-28T06:40:15.632Z,1.05
2019-02-28T06:41:19.321Z,1.08
2019-02-28T06:42:23.035Z,1.07
2019-02-28T06:43:26.777Z,1.11
2019-02-28T06:44:30.349Z,1.12
2019-02-28T06:45:36.790Z,1.15
2019-02-28T06:46:40.009Z,1.21
2019-02-28T06:47:47.976Z,1.15
2019-02-28T06:48:49.766Z,1.12
2019-02-28T06:49:53.406Z,1.16
2019-02-28T06:50:57.021Z,1.22
2019-02-28T06:52:00.653Z,1.28
2019-02-28T06:53:04.294Z,1.29
2019-02-28T06:54:08.755Z,1.29
2019-02-28T06:55:14.742Z,1.36
2019-02-28T06:56:21.888Z,1.42
2019-02-28T06:57:26.854Z,1.47
2019-02-28T06:58:30.500Z,1.48
2019-02-28T06:59:36.191Z,1.46
2019-02-28T07:00:40.527Z,1.64
2019-02-28T07:01:44.158Z,1.74
2019-02-28T07:02:49.969Z,1.76
2019-02-28T07:03:53.783Z,1.79
2019-02-28T07:04:57.681Z,1.83
2019-02-28T07:06:01.998Z,1.94
2019-02-28T07:07:07.445Z,1.97
2019-02-28T07:08:11.162Z,2.01
2019-02-28T07:09:14.868Z,2.08
2019-02-28T07:10:18.817Z,2.30
2019-02-28T07:11:23.266Z,2.42
2019-02-28T07:12:30.459Z,2.62
2019-02-28T07:13:38.912Z,2.84
2019-02-28T07:14:39.716Z,3.07
2019-02-28T07:15:43.388Z,3.26
2019-02-28T07:16:47.030Z,3.36
2019-02-28T07:17:50.671Z,3.59
2019-02-28T07:18:54.452Z,3.65
2019-02-28T07:20:01.340Z,3.66
2019-02-28T07:21:03.600Z,3.79
2019-02-28T07:22:07.240Z,3.93
2019-02-28T07:23:10.891Z,4.05
2019-02-28T07:24:15.971Z,4.14
2019-02-28T07:25:19.664Z,4.15
2019-02-28T07:26:23.337Z,4.28
2019-02-28T07:27:29.720Z,4.34
2019-02-28T07:28:36.178Z,4.45
2019-02-28T07:29:37.954Z,4.60
2019-02-28T07:30:41.602Z,4.72
2019-02-28T07:31:45.276Z,4.95
2019-02-28T07:32:48.910Z,4.99
2019-02-28T07:33:52.561Z,4.92
2019-02-28T07:34:58.060Z,4.98
2019-02-28T07:36:01.555Z,5.01
2019-02-28T07:37:05.241Z,5.15
2019-02-28T07:38:08.823Z,5.25
2019-02-28T07:39:12.467Z,5.24
2019-02-28T07:40:17.535Z,5.37
2019-02-28T07:41:26.496Z,5.51
2019-02-28T07:42:26.668Z,5.63
2019-02-28T07:43:31.768Z,5.70
2019-02-28T07:44:37.934Z,5.89
2019-02-28T07:45:41.772Z,6.05
2019-02-28T07:46:45.447Z,6.09
2019-02-28T07:47:52.731Z,6.35
2019-02-28T07:48:54.556Z,6.61
2019-02-28T07:49:58.189Z,6.74
2019-02-28T07:51:02.167Z,6.91
2019-02-28T07:52:05.806Z,7.00
2019-02-28T07:53:09.814Z,7.12
2019-02-28T07:54:15.802Z,7.20
2019-02-28T07:55:21.281Z,7.24
2019-02-28T07:56:24.946Z,7.49
2019-02-28T07:57:28.579Z,7.74
2019-02-28T07:58:33.424Z,7.73
2019-02-28T07:59:40.969Z,8.03
2019-02-28T08:00:42.632Z,8.14
2019-02-28T08:01:46.271Z,8.17
2019-02-28T08:02:49.909Z,8.42
2019-02-28T08:03:54.573Z,8.59
2019-02-28T08:04:58.202Z,8.97
2019-02-28T08:06:04.768Z,9.15
2019-02-28T08:07:07.230Z,9.28
2019-02-28T08:08:10.963Z,9.40
2019-02-28T08:09:25.455Z,9.36
2019-02-28T08:10:30.382Z,9.40
2019-02-28T08:11:34.057Z,9.36
2019-02-28T08:12:37.777Z,9.49
2019-02-28T08:13:41.442Z,9.78
2019-02-28T08:14:47.119Z,10.08
2019-02-28T08:15:53.330Z,10.21
2019-02-28T08:16:55.996Z,10.55
2019-02-28T08:17:59.639Z,10.77
2019-02-28T08:19:03.277Z,10.71
2019-02-28T08:20:08.340Z,10.73
2019-02-28T08:21:12.253Z,10.80
2019-02-28T08:22:15.907Z,11.04
2019-02-28T08:23:19.624Z,11.31
2019-02-28T08:24:23.248Z,11.31
2019-02-28T08:25:26.921Z,11.49
2019-02-28T08:26:30.604Z,12.12
2019-02-28T08:27:34.245Z,12.48
2019-02-28T08:28:37.982Z,12.94
2019-02-28T08:29:44.767Z,13.15
2019-02-28T08:30:47.440Z,13.25
2019-02-28T08:31:51.226Z,13.25
2019-02-28T08:32:54.937Z,13.21
2019-02-28T08:33:58.706Z,13.26
2019-02-28T08:35:02.360Z,13.20
2019-02-28T08:36:16.723Z,13.00
2019-02-28T08:37:22.372Z,12.80
2019-02-28T08:38:25.906Z,12.80
2019-02-28T08:39:29.600Z,13.18
2019-02-28T08:40:33.321Z,13.14
2019-02-28T08:41:36.979Z,12.96
2019-02-28T08:42:40.793Z,13.26
2019-02-28T08:43:47.530Z,13.22
2019-02-28T08:44:49.853Z,13.15
2019-02-28T08:45:53.520Z,13.26
2019-02-28T08:46:57.194Z,13.14
2019-02-28T08:48:00.834Z,13.11
2019-02-28T08:49:07.264Z,13.09
2019-02-28T08:50:19.174Z,13.03
2019-02-28T08:51:22.969Z,13.12
2019-02-28T08:52:27.788Z,13.38
2019-02-28T08:53:31.420Z,13.61
2019-02-28T08:54:35.098Z,14.03
2019-02-28T08:55:39.990Z,14.28
2019-02-28T08:56:46.222Z,14.44
2019-02-28T08:57:54.747Z,14.49
2019-02-28T08:58:55.142Z,14.25
2019-02-28T08:59:58.776Z,14.05
2019-02-28T09:01:05.336Z,14.30
2019-02-28T09:02:08.639Z,14.44
2019-02-28T09:03:12.314Z,14.44
2019-02-28T09:04:15.954Z,14.15
2019-02-28T09:05:25.524Z,14.44
2019-02-28T09:06:25.053Z,14.73
2019-02-28T09:07:28.788Z,15.13
2019-02-28T09:08:32.463Z,15.28
2019-02-28T09:09:36.110Z,15.28
2019-02-28T09:10:39.752Z,15.35
2019-02-28T09:11:43.394Z,15.57
2019-02-28T09:12:47.194Z,15.80
2019-02-28T09:13:50.938Z,16.14
2019-02-28T09:14:55.456Z,16.53
2019-02-28T09:16:01.934Z,16.79
2019-02-28T09:17:06.998Z,17.07
2019-02-28T09:18:10.636Z,17.38
2019-02-28T09:19:14.232Z,17.57
2019-02-28T09:20:18.265Z,17.57
2019-02-28T09:21:21.888Z,17.38
2019-02-28T09:22:27.343Z,17.33
2019-02-28T09:23:30.898Z,17.61
2019-02-28T09:24:34.572Z,17.80
2019-02-28T09:25:38.207Z,18.01
2019-02-28T09:26:41.894Z,18.05
2019-02-28T09:27:45.539Z,17.72
2019-02-28T09:28:49.201Z,18.24
2019-02-28T09:29:54.877Z,18.35
2019-02-28T09:31:01.442Z,18.44
2019-02-28T09:32:05.747Z,18.55
2019-02-28T09:33:09.389Z,18.49
2019-02-28T09:34:13.035Z,18.70
2019-02-28T09:35:16.717Z,18.72
2019-02-28T09:36:21.508Z,18.84
2019-02-28T09:37:29.521Z,19.25
2019-02-28T09:38:30.771Z,19.61
2019-02-28T09:39:34.350Z,20.10
2019-02-28T09:40:38.000Z,20.22
2019-02-28T09:41:41.664Z,20.32
2019-02-28T09:42:47.842Z,20.43
2019-02-28T09:43:50.671Z,20.56
2019-02-28T09:44:54.310Z,20.62
2019-02-28T09:45:57.987Z,20.18
2019-02-28T09:47:01.625Z,20.49
2019-02-28T09:48:05.360Z,20.80
2019-02-28T09:49:12.238Z,21.01
2019-02-28T09:50:19.356Z,21.37
2019-02-28T09:51:22.985Z,21.73
2019-02-28T09:52:26.615Z,21.32
2019-02-28T09:53:30.248Z,21.19
2019-02-28T09:54:33.892Z,21.55
2019-02-28T09:55:37.527Z,22.06
2019-02-28T09:56:44.588Z,22.32
2019-02-28T09:57:46.640Z,22.41
2019-02-28T09:58:50.279Z,21.93
2019-02-28T09:59:53.925Z,21.65
2019-02-28T10:00:57.959Z,21.92
2019-02-28T10:02:05.020Z,21.91
2019-02-28T10:03:06.997Z,21.95
2019-02-28T10:04:10.712Z,21.68
2019-02-28T10:05:14.646Z,21.75
2019-02-28T10:06:18.284Z,21.99
2019-02-28T10:07:23.363Z,22.37
2019-02-28T10:08:27.328Z,22.25
2019-02-28T10:09:31.395Z,22.12
2019-02-28T10:10:35.033Z,22.46
2019-02-28T10:11:40.461Z,22.58
2019-02-28T10:12:44.280Z,23.01
2019-02-28T10:13:49.589Z,23.36
2019-02-28T10:14:53.380Z,23.48
2019-02-28T10:15:57.019Z,23.80
2019-02-28T10:17:00.736Z,23.40
2019-02-28T10:18:05.276Z,23.48
2019-02-28T10:19:10.198Z,23.89
2019-02-28T10:20:26.335Z,24.19
2019-02-28T10:21:27.801Z,24.36
2019-02-28T10:22:31.427Z,24.30
2019-02-28T10:23:35.083Z,24.16
2019-02-28T10:24:38.711Z,24.30
2019-02-28T10:25:43.723Z,24.35
2019-02-28T10:26:48.178Z,24.41
2019-02-28T10:27:54.610Z,24.50
2019-02-28T10:28:58.660Z,24.75
2019-02-28T10:30:02.295Z,24.94
2019-02-28T10:31:05.945Z,24.42
2019-02-28T10:32:09.751Z,23.89
2019-02-28T10:33:14.291Z,23.73
2019-02-28T10:34:19.125Z,23.84
2019-02-28T10:35:22.805Z,23.88
2019-02-28T10:36:26.443Z,23.80
2019-02-28T10:37:30.072Z,23.83
2019-02-28T10:38:33.900Z,23.45
2019-02-28T10:39:40.291Z,23.45
2019-02-28T10:40:43.509Z,23.24
2019-02-28T10:41:47.177Z,22.94
2019-02-28T10:42:50.809Z,22.94
2019-02-28T10:43:55.942Z,23.25
2019-02-28T10:44:59.795Z,23.48
2019-02-28T10:46:03.698Z,23.16
2019-02-28T10:47:07.337Z,23.23
2019-02-28T10:48:11.026Z,22.91
2019-02-28T10:49:14.663Z,23.06
2019-02-28T10:50:25.829Z,23.44
2019-02-28T10:51:29.231Z,23.50
2019-02-28T10:52:33.857Z,23.35
2019-02-28T10:53:39.365Z,23.44
2019-02-28T10:54:42.853Z,23.56
2019-02-28T10:55:46.596Z,23.68
2019-02-28T10:56:50.297Z,24.10
2019-02-28T10:57:53.950Z,24.23
2019-02-28T10:58:57.572Z,24.82
2019-02-28T11:00:01.267Z,25.29
2019-02-28T11:01:08.681Z,25.13
2019-02-28T11:02:18.990Z,25.60
2019-02-28T11:03:19.196Z,25.97
2019-02-28T11:04:22.897Z,25.61
2019-02-28T11:05:31.096Z,25.77
2019-02-28T11:06:38.009Z,26.10
2019-02-28T11:07:41.646Z,26.31
2019-02-28T11:08:47.482Z,26.45
2019-02-28T11:09:52.216Z,26.36
2019-02-28T11:10:55.866Z,26.05
2019-02-28T11:11:59.543Z,25.65
2019-02-28T11:13:03.199Z,25.60
2019-02-28T11:14:08.847Z,25.98
2019-02-28T11:15:13.854Z,26.11
2019-02-28T11:16:20.428Z,26.38
2019-02-28T11:17:23.130Z,26.36
2019-02-28T11:18:26.865Z,26.26
2019-02-28T11:19:30.564Z,26.61
2019-02-28T11:20:34.218Z,26.83
2019-02-28T11:21:37.866Z,27.02
2019-02-28T11:22:41.674Z,27.29
2019-02-28T11:23:46.485Z,27.28
2019-02-28T11:24:51.358Z,27.80
2019-02-28T11:25:55.406Z,28.03
2019-02-28T11:26:59.054Z,28.25
2019-02-28T11:28:02.825Z,28.32
2019-02-28T11:29:06.563Z,28.19
2019-02-28T11:30:13.112Z,28.39
2019-02-28T11:31:19.217Z,28.84
2019-02-28T11:32:23.237Z,28.72
2019-02-28T11:33:26.900Z,28.37
2019-02-28T11:34:30.744Z,28.69
2019-02-28T11:35:34.478Z,29.23
2019-02-28T11:36:38.503Z,29.35
2019-02-28T11:37:45.350Z,29.59
2019-02-28T11:38:48.055Z,30.18
2019-02-28T11:39:51.771Z,30.45
2019-02-28T11:40:57.540Z,30.29
2019-02-28T11:42:00.804Z,30.48
2019-02-28T11:43:05.130Z,30.09
2019-02-28T11:44:09.305Z,29.94
2019-02-28T11:45:26.502Z,29.50
2019-02-28T11:46:30.151Z,29.58
2019-02-28T11:47:33.853Z,29.76
2019-02-28T11:48:37.427Z,30.04
2019-02-28T11:49:41.229Z,30.26
2019-02-28T11:50:45.173Z,30.32
2019-02-28T11:51:49.377Z,30.30
2019-02-28T11:52:54.269Z,30.25
2019-02-28T11:53:57.922Z,30.67
2019-02-28T11:55:01.644Z,31.08
2019-02-28T11:56:05.277Z,31.04
2019-02-28T11:57:10.240Z,30.86
2019-02-28T11:58:17.581Z,30.65
2019-02-28T11:59:20.403Z,30.72
2019-02-28T12:00:35.835Z,31.14
2019-02-28T12:01:38.030Z,31.45
2019-02-28T12:02:41.668Z,31.78
2019-02-28T12:03:45.296Z,31.15
2019-02-28T12:04:49.119Z,31.03
2019-02-28T12:05:52.796Z,30.98
2019-02-28T12:06:57.390Z,31.00
2019-02-28T12:08:01.941Z,30.64
2019-02-28T12:09:07.292Z,30.65
2019-02-28T12:10:11.284Z,30.55
2019-02-28T12:11:15.017Z,30.75
2019-02-28T12:12:18.690Z,30.77
2019-02-28T12:13:22.453Z,30.88
2019-02-28T12:14:26.447Z,29.75
2019-02-28T12:15:33.817Z,29.09
2019-02-28T12:16:37.497Z,29.11
2019-02-28T12:17:41.142Z,29.31
2019-02-28T12:18:46.523Z,29.55
2019-02-28T12:19:50.640Z,29.71
2019-02-28T12:20:55.034Z,29.93
2019-02-28T12:22:00.146Z,29.82
2019-02-28T12:23:04.057Z,29.83
2019-02-28T12:24:07.705Z,29.78
2019-02-28T12:25:14.292Z,30.25
2019-02-28T12:26:18.811Z,30.31
2019-02-28T12:27:24.345Z,30.00
2019-02-28T12:28:27.986Z,29.24
2019-02-28T12:29:31.584Z,28.32
2019-02-28T12:30:36.264Z,28.56
2019-02-28T12:31:39.886Z,28.85
2019-02-28T12:32:44.193Z,29.11
2019-02-28T12:33:47.905Z,29.25
2019-02-28T12:34:51.619Z,29.35
2019-02-28T12:35:55.198Z,29.60
2019-02-28T12:36:59.948Z,29.68
2019-02-28T12:38:03.782Z,29.92
2019-02-28T12:39:08.229Z,29.72
2019-02-28T12:40:20.365Z,30.00
2019-02-28T12:41:25.134Z,29.94
2019-02-28T12:42:31.638Z,29.92
2019-02-28T12:43:34.735Z,30.03
2019-02-28T12:44:38.793Z,29.94
2019-02-28T12:45:47.262Z,29.81
2019-02-28T12:46:50.785Z,29.88
2019-02-28T12:47:54.419Z,30.16
2019-02-28T12:48:58.140Z,30.13
2019-02-28T12:50:01.778Z,29.87
2019-02-28T12:51:06.207Z,29.18
2019-02-28T12:52:11.257Z,28.85
2019-02-28T12:53:15.653Z,28.91
2019-02-28T12:54:19.668Z,28.83
2019-02-28T12:55:23.518Z,28.39
2019-02-28T12:56:27.236Z,28.51
2019-02-28T12:57:30.872Z,28.40
2019-02-28T12:58:38.864Z,28.36
2019-02-28T12:59:41.794Z,28.43
2019-02-28T13:00:47.231Z,28.05
2019-02-28T13:01:51.133Z,28.00
2019-02-28T13:02:54.688Z,28.04
2019-02-28T13:04:00.590Z,28.11
2019-02-28T13:05:04.895Z,28.07
2019-02-28T13:06:08.527Z,28.05
2019-02-28T13:07:12.525Z,27.95
2019-02-28T13:08:16.166Z,27.81
2019-02-28T13:09:19.795Z,27.75
2019-02-28T13:10:28.005Z,27.58
2019-02-28T13:11:29.242Z,27.55
2019-02-28T13:12:33.250Z,27.89
2019-02-28T13:13:37.096Z,28.18
2019-02-28T13:14:41.816Z,27.93
2019-02-28T13:15:46.776Z,27.95
2019-02-28T13:16:50.671Z,27.77
2019-02-28T13:17:54.334Z,27.71
2019-02-28T13:18:58.065Z,27.79
2019-02-28T13:20:01.812Z,27.60
2019-02-28T13:21:06.190Z,27.83
2019-02-28T13:22:11.019Z,27.88
2019-02-28T13:23:16.979Z,27.82
2019-02-28T13:24:19.947Z,27.89
2019-02-28T13:25:24.803Z,27.97
2019-02-28T13:26:30.589Z,27.17
2019-02-28T13:27:34.390Z,27.48
2019-02-28T13:28:38.109Z,27.48
2019-02-28T13:29:42.144Z,27.54
2019-02-28T13:30:50.150Z,27.46
2019-02-28T13:31:51.336Z,26.81
2019-02-28T13:32:55.196Z,26.52
2019-02-28T13:34:01.086Z,26.58
2019-02-28T13:35:07.432Z,26.70
2019-02-28T13:36:12.983Z,26.74
2019-02-28T13:37:16.785Z,27.01
2019-02-28T13:38:20.439Z,26.89
2019-02-28T13:39:27.415Z,26.98
2019-02-28T13:40:29.792Z,26.60
2019-02-28T13:41:33.442Z,26.33
2019-02-28T13:42:40.504Z,26.44
2019-02-28T13:43:42.857Z,26.79
2019-02-28T13:44:46.565Z,26.93
2019-02-28T13:45:54.441Z,26.82
2019-02-28T13:46:55.657Z,26.68
2019-02-28T13:47:59.271Z,26.77
2019-02-28T13:49:02.905Z,26.60
2019-02-28T13:50:16.799Z,26.60
2019-02-28T13:51:20.246Z,26.59
2019-02-28T13:52:23.913Z,26.49
2019-02-28T13:53:30.588Z,26.13
2019-02-28T13:54:33.059Z,26.29
2019-02-28T13:55:36.712Z,26.03
2019-02-28T13:56:40.355Z,25.60
2019-02-28T13:57:46.748Z,25.63
2019-02-28T13:58:49.472Z,25.55
2019-02-28T13:59:53.101Z,25.66
2019-02-28T14:00:56.853Z,25.20
2019-02-28T14:02:00.506Z,25.05
2019-02-28T14:03:09.579Z,24.86
2019-02-28T14:04:12.248Z,25.13
2019-02-28T14:05:15.976Z,25.23
2019-02-28T14:06:20.044Z,25.46
2019-02-28T14:07:25.825Z,25.09
2019-02-28T14:08:29.591Z,24.90